createdAt,value
2022-10-05T00:02:11.756Z,22.6
2022-10-05T00:04:28.341Z,22.3
2022-10-05T00:06:45.312Z,22.4
2022-10-05T00:09:01.133Z,22.5
2022-10-05T00:11:16.911Z,22.6
2022-10-05T00:13:32.989Z,22.4
2022-10-05T00:15:49.011Z,22.7
2022-10-05T00:18:06.004Z,22.4
2022-10-05T00:20:22.873Z,22.5
2022-10-05T00:22:39.854Z,22.5
2022-10-05T00:24:56.656Z,22.1
2022-10-05T00:27:13.490Z,22.3
2022-10-05T00:29:30.512Z,22.9
2022-10-05T00:31:47.523Z,22
2022-10-05T00:34:04.282Z,22.4
2022-10-05T00:36:21.032Z,21.9
2022-10-05T00:38:38.069Z,22.3
2022-10-05T00:40:54.772Z,21.9
2022-10-05T00:43:10.893Z,22.3
2022-10-05T00:45:26.069Z,22.6
2022-10-05T00:47:42.389Z,23.1
2022-10-05T00:49:44.033Z,22.4
2022-10-05T00:49:59.207Z,22.3
2022-10-05T00:52:16.011Z,22.5
2022-10-05T00:54:33.071Z,22.1
2022-10-05T00:56:49.221Z,22.1
2022-10-05T00:59:04.431Z,22.6
2022-10-05T01:01:20.534Z,22.9
2022-10-05T01:03:37.671Z,22.3
2022-10-05T01:05:54.822Z,22.5
2022-10-05T01:08:10.876Z,22.3
2022-10-05T01:10:26.780Z,22.6
2022-10-05T01:12:43.599Z,22.5
2022-10-05T01:15:00.789Z,22.2
2022-10-05T01:17:17.778Z,22.3
2022-10-05T01:19:34.539Z,22.8
2022-10-05T01:21:50.511Z,22.2
2022-10-05T01:24:06.685Z,22.7
2022-10-05T01:26:23.548Z,22.3
2022-10-05T01:28:40.634Z,22.6
2022-10-05T01:30:56.675Z,22.3
2022-10-05T01:33:12.818Z,22.6
2022-10-05T01:35:29.652Z,22.4
2022-10-05T01:37:46.558Z,22.4
2022-10-05T01:40:03.531Z,22.4
2022-10-05T01:42:20.354Z,22.6
2022-10-05T01:44:37.430Z,22.3
2022-10-05T01:46:54.232Z,22.2
2022-10-05T01:49:10.471Z,22.8
2022-10-05T01:51:26.395Z,22.7
2022-10-05T01:53:42.888Z,22.3
2022-10-05T01:55:58.154Z,22.8
2022-10-05T01:58:14.240Z,22.9
2022-10-05T02:00:31.320Z,22.4
2022-10-05T02:02:48.361Z,22.4
2022-10-05T02:05:29.340Z,22.6
2022-10-05T02:07:45.437Z,22.4
2022-10-05T02:10:01.331Z,22.6
2022-10-05T02:12:18.294Z,22.3
2022-10-05T02:14:34.329Z,22.4
2022-10-05T02:16:50.316Z,22.7
2022-10-05T02:19:07.227Z,22.4
2022-10-05T02:21:23.805Z,22.4
2022-10-05T02:23:39.346Z,22.8
2022-10-05T02:25:56.287Z,22.3
2022-10-05T02:28:13.385Z,22.6
2022-10-05T02:30:29.996Z,22.3
2022-10-05T02:32:46.832Z,22.1
2022-10-05T02:35:03.876Z,22.3
2022-10-05T02:37:19.702Z,22.4
2022-10-05T02:39:35.591Z,22.6
2022-10-05T02:41:52.476Z,22.2
2022-10-05T02:44:09.309Z,22.3
2022-10-05T02:46:11.004Z,22.1
2022-10-05T02:46:26.218Z,22.2
2022-10-05T02:48:43.095Z,22.4
2022-10-05T02:50:59.893Z,22.4
2022-10-05T02:53:16.708Z,21.9
2022-10-05T02:55:33.537Z,22.1
2022-10-05T02:57:49.539Z,21.9
2022-10-05T03:00:05.521Z,22.5
2022-10-05T03:02:22.545Z,22.3
2022-10-05T03:04:39.331Z,22.5
2022-10-05T03:06:56.239Z,22.2
2022-10-05T03:09:13.077Z,22.3
2022-10-05T03:11:29.011Z,22.8
2022-10-05T03:13:45.266Z,22.4
2022-10-05T03:16:01.976Z,22.6
2022-10-05T03:18:18.696Z,22.3
2022-10-05T03:20:35.570Z,22.1
2022-10-05T03:22:52.492Z,22.3
2022-10-05T03:25:09.251Z,22.3
2022-10-05T03:27:26.254Z,22.1
2022-10-05T03:29:42.190Z,22.3
2022-10-05T03:31:58.082Z,22.6
2022-10-05T03:34:14.359Z,22.1
2022-10-05T03:36:30.336Z,22.7
2022-10-05T03:38:47.324Z,22.4
2022-10-05T03:41:04.199Z,22.1
2022-10-05T03:43:21.100Z,22.3
2022-10-05T03:45:38.071Z,22.1
2022-10-05T03:47:57.745Z,22.4
2022-10-05T03:50:11.580Z,22.3
2022-10-05T03:52:29.345Z,22.1
2022-10-05T03:54:45.269Z,22.2
2022-10-05T03:57:02.136Z,22.2
2022-10-05T03:59:19.241Z,22.2
2022-10-05T04:01:36.002Z,22.5
2022-10-05T04:03:52.767Z,22.2
2022-10-05T04:06:08.838Z,22.3
2022-10-05T04:08:25.055Z,22.7
2022-10-05T04:10:40.255Z,23.1
2022-10-05T04:12:57.292Z,22.3
2022-10-05T04:15:17.969Z,22.3
2022-10-05T04:17:29.586Z,22.7
2022-10-05T04:19:46.572Z,22.3
2022-10-05T04:22:03.565Z,22.3
2022-10-05T04:24:20.419Z,22.1
2022-10-05T04:26:37.159Z,22.2
2022-10-05T04:28:54.055Z,22.3
2022-10-05T04:31:11.011Z,22.6
2022-10-05T04:33:27.851Z,22.3
2022-10-05T04:35:44.733Z,22.3
2022-10-05T04:38:00.716Z,22.3
2022-10-05T04:40:16.897Z,22.4
2022-10-05T04:42:33.611Z,22.3
2022-10-05T04:44:50.003Z,22.4
2022-10-05T04:47:06.066Z,22.6
2022-10-05T04:49:22.738Z,22.3
2022-10-05T04:51:38.987Z,22.6
2022-10-05T04:53:55.082Z,22.7
2022-10-05T04:56:12.041Z,22.4
2022-10-05T04:58:29.054Z,22.5
2022-10-05T05:00:45.970Z,22.1
2022-10-05T05:03:02.880Z,22.3
2022-10-05T05:05:18.935Z,22.3
2022-10-05T05:07:48.640Z,22.6
2022-10-05T05:10:05.223Z,22.6
2022-10-05T05:12:21.963Z,22.5
2022-10-05T05:14:38.961Z,22.4
2022-10-05T05:16:55.872Z,22.6
2022-10-05T05:19:12.801Z,22.4
2022-10-05T05:21:28.929Z,22.1
2022-10-05T05:23:45.081Z,22.7
2022-10-05T05:26:01.996Z,22.5
2022-10-05T05:28:19.029Z,22.3
2022-10-05T05:30:35.872Z,22.2
2022-10-05T05:32:53.106Z,22.3
2022-10-05T05:35:09.960Z,22.3
2022-10-05T05:37:26.305Z,22.4
2022-10-05T05:39:42.222Z,22.5
2022-10-05T05:41:59.415Z,22.4
2022-10-05T05:44:16.224Z,22.4
2022-10-05T05:46:51.487Z,22.4
2022-10-05T05:49:02.011Z,22.3
2022-10-05T05:51:17.419Z,22.6
2022-10-05T05:53:33.088Z,22.8
2022-10-05T05:55:49.277Z,22.8
2022-10-05T05:58:06.290Z,22.3
2022-10-05T06:00:23.273Z,22.3
2022-10-05T06:02:43.524Z,22.4
2022-10-05T06:05:00.265Z,22.4
2022-10-05T06:07:17.380Z,22.5
2022-10-05T06:09:34.221Z,22.5
2022-10-05T06:11:51.268Z,22.4
2022-10-05T06:14:08.087Z,22.5
2022-10-05T06:16:25.070Z,22.3
2022-10-05T06:18:41.199Z,22.5
2022-10-05T06:20:57.101Z,22.6
2022-10-05T06:23:14.008Z,22.6
2022-10-05T06:25:15.590Z,22.4
2022-10-05T06:25:30.738Z,22.5
2022-10-05T06:27:46.926Z,22.4
2022-10-05T06:30:02.948Z,22.6
2022-10-05T06:32:20.098Z,22.4
2022-10-05T06:34:36.708Z,22.4
2022-10-05T06:36:53.792Z,22.8
2022-10-05T06:39:10.531Z,22.5
2022-10-05T06:41:27.383Z,22.3
2022-10-05T06:43:44.117Z,22.4
2022-10-05T06:46:00.742Z,22.9
2022-10-05T06:48:16.869Z,23.1
2022-10-05T06:50:31.695Z,22.6
2022-10-05T06:52:47.840Z,22.8
2022-10-05T06:55:04.560Z,22.7
2022-10-05T06:57:20.609Z,22.3
2022-10-05T06:59:36.419Z,22.6
2022-10-05T07:01:53.034Z,22.4
2022-10-05T07:04:09.709Z,22.2
2022-10-05T07:06:25.509Z,22.6
2022-10-05T07:08:41.223Z,22.4
2022-10-05T07:10:57.779Z,22.4
2022-10-05T07:13:14.449Z,22.9
2022-10-05T07:15:30.995Z,22.3
2022-10-05T07:17:47.557Z,22.8
2022-10-05T07:20:03.840Z,23.4
2022-10-05T07:22:20.670Z,22.6
2022-10-05T07:24:36.866Z,22.3
2022-10-05T07:26:53.153Z,23
2022-10-05T07:29:09.092Z,22.5
2022-10-05T07:31:09.554Z,22.4
2022-10-05T07:31:24.603Z,22.6
2022-10-05T07:33:41.469Z,22.9
2022-10-05T07:35:57.565Z,22.6
2022-10-05T07:38:13.930Z,22.4
2022-10-05T07:40:46.139Z,22.7
2022-10-05T07:42:51.698Z,22.6
2022-10-05T07:43:02.077Z,22.6
2022-10-05T07:45:33.513Z,23.1
2022-10-05T07:47:48.880Z,22.4
2022-10-05T07:50:05.146Z,22.9
2022-10-05T07:52:21.294Z,23.6
2022-10-05T07:54:37.254Z,22.4
2022-10-05T07:56:53.375Z,22.5
2022-10-05T07:59:08.497Z,22.4
2022-10-05T08:01:23.639Z,22.6
2022-10-05T08:03:38.995Z,22.6
2022-10-05T08:05:55.166Z,22.2
2022-10-05T08:08:12.297Z,22.5
2022-10-05T08:10:26.853Z,22.6
2022-10-05T08:12:42.561Z,22.6
2022-10-05T08:14:58.393Z,22.1
2022-10-05T08:17:13.674Z,22.1
2022-10-05T08:19:28.773Z,22.8
2022-10-05T08:21:44.468Z,22.6
2022-10-05T08:23:59.796Z,22.4
2022-10-05T08:26:14.702Z,22.7
2022-10-05T08:28:29.939Z,22.7
2022-10-05T08:30:44.788Z,22.9
2022-10-05T08:32:59.926Z,22.6
2022-10-05T08:35:14.759Z,22.7
2022-10-05T08:37:29.659Z,23
2022-10-05T08:39:44.750Z,22.8
2022-10-05T08:42:00.048Z,22.9
2022-10-05T08:44:14.985Z,23.1
2022-10-05T08:46:29.991Z,23
2022-10-05T08:48:45.183Z,23.1
2022-10-05T08:51:00.110Z,23.1
2022-10-05T08:53:15.371Z,23.1
2022-10-05T08:55:30.353Z,23.1
2022-10-05T08:57:45.539Z,22.9
2022-10-05T09:00:00.473Z,22.9
2022-10-05T09:02:15.534Z,23
2022-10-05T09:04:30.876Z,23.1
2022-10-05T09:06:45.730Z,22.9
2022-10-05T09:09:01.052Z,23.1
2022-10-05T09:11:16.152Z,22.9
2022-10-05T09:13:31.499Z,23.2
2022-10-05T09:15:56.945Z,23.2
2022-10-05T09:18:12.122Z,23.2
2022-10-05T09:20:27.587Z,23.2
2022-10-05T09:22:42.615Z,23.1
2022-10-05T09:24:57.895Z,23.4
2022-10-05T09:27:13.196Z,23.1
2022-10-05T09:29:28.524Z,23.3
2022-10-05T09:31:44.117Z,23.4
2022-10-05T09:33:59.170Z,23.3
2022-10-05T09:36:14.564Z,23.4
2022-10-05T09:38:29.831Z,23.4
2022-10-05T09:40:45.729Z,23.3
2022-10-05T09:43:00.485Z,23.5
2022-10-05T09:45:20.440Z,23.2
2022-10-05T09:47:31.434Z,23.3
2022-10-05T09:49:46.635Z,23
2022-10-05T09:52:02.194Z,23.4
2022-10-05T09:54:17.420Z,23.2
2022-10-05T09:56:32.739Z,23.3
2022-10-05T09:58:48.119Z,23.4
2022-10-05T10:01:09.337Z,23.4
2022-10-05T10:03:21.879Z,23.3
2022-10-05T10:05:37.232Z,23.4
2022-10-05T10:07:52.652Z,23.5
2022-10-05T10:10:08.125Z,23.4
2022-10-05T10:12:23.453Z,23.3
2022-10-05T10:14:38.852Z,23.4
2022-10-05T10:16:54.289Z,23.3
2022-10-05T10:19:09.820Z,23.3
2022-10-05T10:21:10.225Z,23.3
2022-10-05T10:21:25.286Z,23.3
2022-10-05T10:23:41.002Z,23.3
2022-10-05T10:25:56.210Z,23.6
2022-10-05T10:28:11.558Z,23.4
2022-10-05T10:30:27.577Z,23.3
2022-10-05T10:32:27.447Z,23.6
2022-10-05T10:32:42.727Z,23.2
2022-10-05T10:34:58.001Z,23.1
2022-10-05T10:37:13.437Z,23.3
2022-10-05T10:39:29.038Z,23.4
2022-10-05T10:41:44.553Z,23.2
2022-10-05T10:43:59.866Z,23.5
2022-10-05T10:46:15.300Z,23.3
2022-10-05T10:48:30.740Z,23.6
2022-10-05T10:50:46.209Z,23.4
2022-10-05T10:53:02.055Z,23.4
2022-10-05T10:55:17.298Z,23.3
2022-10-05T10:57:32.576Z,23.3
2022-10-05T10:59:48.131Z,23.4
2022-10-05T11:01:48.853Z,23.3
2022-10-05T11:02:03.710Z,22.9
2022-10-05T11:04:19.016Z,23.3
2022-10-05T11:06:34.587Z,23.6
2022-10-05T11:08:50.062Z,23.4
2022-10-05T11:11:05.604Z,23.4
2022-10-05T11:13:21.023Z,23.3
2022-10-05T11:15:36.622Z,23.3
2022-10-05T11:17:52.303Z,23.3
2022-10-05T11:20:07.571Z,23.1
2022-10-05T11:22:23.048Z,23.4
2022-10-05T11:24:38.449Z,23.4
2022-10-05T11:26:54.014Z,23.3
2022-10-05T11:29:09.391Z,23.4
2022-10-05T11:31:25.075Z,23.6
2022-10-05T11:33:40.389Z,23.3
2022-10-05T11:35:55.917Z,23.5
2022-10-05T11:38:11.454Z,23.6
2022-10-05T11:40:27.091Z,23.3
2022-10-05T11:42:42.477Z,23.4
2022-10-05T11:44:58.015Z,23.3
2022-10-05T11:47:13.493Z,23.3
2022-10-05T11:49:28.913Z,23.4
2022-10-05T11:51:44.389Z,23.3
2022-10-05T11:54:00.057Z,23.4
2022-10-05T11:56:28.075Z,23.2
2022-10-05T11:58:43.674Z,23.4
2022-10-05T12:00:59.152Z,23.3
2022-10-05T12:03:14.894Z,23.3
2022-10-05T12:05:30.247Z,23.1
2022-10-05T12:07:45.549Z,23.3
2022-10-05T12:10:01.089Z,23.3
2022-10-05T12:12:01.468Z,23.4
2022-10-05T12:12:16.612Z,23.3
2022-10-05T12:14:32.069Z,23.3
2022-10-05T12:16:47.515Z,23.4
2022-10-05T12:19:03.594Z,23.4
2022-10-05T12:21:18.435Z,23.6
2022-10-05T12:23:34.018Z,23.4
2022-10-05T12:25:49.458Z,23.2
2022-10-05T12:28:05.240Z,23.3
2022-10-05T12:30:20.508Z,23.4
2022-10-05T12:32:35.972Z,23.4
2022-10-05T12:34:51.495Z,23.1
2022-10-05T12:37:25.415Z,23.3
2022-10-05T12:39:40.906Z,23.4
2022-10-05T12:41:56.423Z,23.4
2022-10-05T12:44:11.919Z,23.3
2022-10-05T12:46:27.512Z,23.3
2022-10-05T12:48:42.943Z,23.3
2022-10-05T12:50:58.453Z,23.1
2022-10-05T12:53:13.993Z,23.3
2022-10-05T12:55:29.495Z,23.4
2022-10-05T12:57:45.036Z,23.2
2022-10-05T13:00:00.544Z,23.4
2022-10-05T13:02:16.109Z,23
2022-10-05T13:04:31.910Z,23.4
2022-10-05T13:06:47.102Z,23.2
2022-10-05T13:09:02.566Z,23.2
2022-10-05T13:11:18.141Z,23.3
2022-10-05T13:13:33.998Z,23.4
2022-10-05T13:15:49.164Z,23.1
2022-10-05T13:18:04.850Z,23.3
2022-10-05T13:20:21.470Z,23.1
2022-10-05T13:22:35.612Z,23.6
2022-10-05T13:24:51.136Z,23.2
2022-10-05T13:27:06.781Z,23.5
2022-10-05T13:29:22.238Z,23.1
2022-10-05T13:31:37.707Z,23.2
2022-10-05T13:33:53.338Z,23.3
2022-10-05T13:36:08.767Z,23.2
2022-10-05T13:38:24.278Z,23.1
2022-10-05T13:40:39.814Z,23.1
2022-10-05T13:42:55.486Z,23.3
2022-10-05T13:44:55.902Z,23.2
2022-10-05T13:45:11.035Z,22.9
2022-10-05T13:47:26.429Z,23.2
2022-10-05T13:49:42.120Z,23.3
2022-10-05T13:51:57.572Z,23.1
2022-10-05T13:54:13.144Z,23.3
2022-10-05T13:56:28.664Z,23.1
2022-10-05T13:58:44.432Z,23.3
2022-10-05T14:00:59.680Z,22.9
2022-10-05T14:03:15.351Z,23.3
2022-10-05T14:05:30.728Z,23.2
2022-10-05T14:07:46.221Z,23.2
2022-10-05T14:10:01.887Z,23.3
2022-10-05T14:12:17.407Z,23.3
2022-10-05T14:14:33.158Z,23.2
2022-10-05T14:16:48.611Z,23.4
2022-10-05T14:19:04.134Z,23.4
2022-10-05T14:21:19.671Z,23.3
2022-10-05T14:23:35.254Z,23.2
2022-10-05T14:26:03.666Z,23.3
2022-10-05T14:28:16.482Z,23.1
2022-10-05T14:30:31.936Z,23.3
2022-10-05T14:32:47.527Z,23.2
2022-10-05T14:35:03.041Z,23.3
2022-10-05T14:37:18.811Z,23.1
2022-10-05T14:39:34.839Z,23.1
2022-10-05T14:41:49.981Z,23.3
2022-10-05T14:44:05.587Z,23.1
2022-10-05T14:46:23.116Z,22.8
2022-10-05T14:48:36.539Z,23.2
2022-10-05T14:50:52.501Z,23.3
2022-10-05T14:53:09.159Z,22.6
2022-10-05T14:55:25.662Z,22.4
2022-10-05T14:57:42.091Z,22.3
2022-10-05T14:59:57.811Z,22.4
2022-10-05T15:02:12.877Z,22.7
2022-10-05T15:04:28.379Z,22.8
2022-10-05T15:06:44.255Z,22.4
2022-10-05T15:08:59.426Z,22.6
2022-10-05T15:11:15.180Z,23.1
2022-10-05T15:13:31.693Z,22.5
2022-10-05T15:15:48.236Z,22.3
2022-10-05T15:18:04.574Z,22.4
2022-10-05T15:20:20.989Z,22.3
2022-10-05T15:22:37.254Z,22.1
2022-10-05T15:24:53.618Z,22.2
2022-10-05T15:27:09.009Z,22.3
2022-10-05T15:29:24.866Z,22.8
2022-10-05T15:31:41.064Z,22.6
2022-10-05T15:33:57.485Z,22.3
2022-10-05T15:36:14.273Z,22.1
2022-10-05T15:38:29.579Z,22.2
2022-10-05T15:40:45.151Z,22.6
2022-10-05T15:43:00.977Z,22.4
2022-10-05T15:45:16.544Z,22.7
2022-10-05T15:47:33.117Z,22.3
2022-10-05T15:49:49.551Z,22.6
2022-10-05T15:52:05.962Z,22.1
2022-10-05T15:54:22.351Z,22.3
2022-10-05T15:56:38.723Z,22.3
2022-10-05T15:58:54.980Z,22.3
2022-10-05T16:01:11.612Z,22.2
2022-10-05T16:03:27.746Z,22
2022-10-05T16:05:44.192Z,22.3
2022-10-05T16:08:00.627Z,22.2
2022-10-05T16:10:16.837Z,22
2022-10-05T16:12:33.275Z,22.1
2022-10-05T16:14:49.871Z,22.3
2022-10-05T16:17:06.050Z,22.2
2022-10-05T16:19:22.305Z,22.3
2022-10-05T16:21:38.772Z,22.2
2022-10-05T16:23:55.213Z,22.2
2022-10-05T16:26:10.954Z,22.8
2022-10-05T16:28:26.440Z,22.8
2022-10-05T16:30:41.172Z,22.8
2022-10-05T16:32:57.098Z,23.1
2022-10-05T16:35:14.005Z,22.6
2022-10-05T16:37:30.683Z,22.3
2022-10-05T16:39:47.373Z,22.6
2022-10-05T16:42:03.964Z,22.6
2022-10-05T16:44:19.793Z,22.5
2022-10-05T16:46:35.763Z,22.8
2022-10-05T16:48:51.629Z,22.6
2022-10-05T16:51:07.570Z,22.7
2022-10-05T16:53:24.322Z,22.6
2022-10-05T16:55:40.951Z,22.6
2022-10-05T16:57:57.703Z,22.6
2022-10-05T17:00:15.900Z,22.4
2022-10-05T17:02:29.555Z,22.8
2022-10-05T17:04:31.051Z,22.3
2022-10-05T17:04:46.392Z,22.3
2022-10-05T17:07:02.132Z,22.6
2022-10-05T17:09:17.308Z,22.9
2022-10-05T17:11:33.407Z,23.2
2022-10-05T17:13:50.199Z,22.3
2022-10-05T17:16:07.111Z,22.2
2022-10-05T17:18:24.003Z,22.7
2022-10-05T17:20:42.547Z,22.3
2022-10-05T17:22:55.616Z,22.8
2022-10-05T17:25:11.587Z,22.5
2022-10-05T17:27:27.427Z,22.7
2022-10-05T17:29:44.497Z,22.6
2022-10-05T17:31:46.036Z,22.3
2022-10-05T17:32:01.086Z,22.3
2022-10-05T17:34:17.863Z,22.3
2022-10-05T17:36:33.710Z,21.9
2022-10-05T17:38:49.613Z,22.7
2022-10-05T17:41:06.361Z,22.4
2022-10-05T17:43:22.254Z,22.2
2022-10-05T17:45:38.395Z,22.6
2022-10-05T17:47:55.054Z,22.6
2022-10-05T17:50:11.753Z,22.2
2022-10-05T17:52:28.452Z,22.4
2022-10-05T17:54:45.169Z,22.3
2022-10-05T17:57:01.959Z,22
2022-10-05T17:59:18.559Z,22.1
2022-10-05T18:01:20.241Z,22.2
2022-10-05T18:01:35.424Z,21.8
2022-10-05T18:03:51.974Z,22.3
2022-10-05T18:06:08.693Z,22.3
2022-10-05T18:08:29.022Z,22.6
2022-10-05T18:10:42.091Z,22.8
2022-10-05T18:12:58.866Z,22.1
2022-10-05T18:15:15.544Z,22.5
2022-10-05T18:17:32.184Z,23
2022-10-05T18:19:49.087Z,22.4
2022-10-05T18:22:05.703Z,22.4
2022-10-05T18:24:22.405Z,22.5
2022-10-05T18:26:39.082Z,21.8
2022-10-05T18:28:55.855Z,22.3
2022-10-05T18:31:13.059Z,22.3
2022-10-05T18:33:29.315Z,22.3
2022-10-05T18:35:46.054Z,22.6
2022-10-05T18:38:02.841Z,22.4
2022-10-05T18:40:19.486Z,22.8
2022-10-05T18:42:36.234Z,22.9
2022-10-05T18:44:53.498Z,22.1
2022-10-05T18:47:09.627Z,22.2
2022-10-05T18:49:26.388Z,22
2022-10-05T18:51:43.236Z,21.9
2022-10-05T18:53:59.974Z,21.8
2022-10-05T18:56:16.734Z,21.3
2022-10-05T18:58:33.409Z,22.4
2022-10-05T19:00:50.243Z,21.9
2022-10-05T19:03:07.105Z,21.6
2022-10-05T19:05:48.290Z,22
2022-10-05T19:07:52.446Z,22.1
2022-10-05T19:10:08.946Z,22.3
2022-10-05T19:12:25.679Z,22.6
2022-10-05T19:14:42.439Z,22.7
2022-10-05T19:16:59.125Z,22.2
2022-10-05T19:19:15.936Z,22
2022-10-05T19:21:32.824Z,22.4
2022-10-05T19:23:49.520Z,22.2
2022-10-05T19:26:06.239Z,22.3
2022-10-05T19:28:23.092Z,22.6
2022-10-05T19:30:39.780Z,22.3
2022-10-05T19:32:56.562Z,22
2022-10-05T19:35:13.382Z,22.4
2022-10-05T19:37:30.143Z,22.8
2022-10-05T19:39:46.866Z,22.5
2022-10-05T19:42:03.886Z,22.4
2022-10-05T19:44:20.344Z,22.3
2022-10-05T19:46:22.094Z,22.1
2022-10-05T19:46:37.180Z,22.1
2022-10-05T19:48:53.930Z,22.2
2022-10-05T19:51:10.001Z,22.4
2022-10-05T19:53:25.921Z,22.8
2022-10-05T19:55:42.705Z,22.4
2022-10-05T19:57:58.830Z,22.4
2022-10-05T20:00:14.756Z,22.7
2022-10-05T20:02:31.732Z,22.4
2022-10-05T20:04:48.503Z,22.4
2022-10-05T20:07:05.407Z,22.6
2022-10-05T20:09:22.438Z,22.4
2022-10-05T20:11:38.171Z,22.1
2022-10-05T20:13:54.009Z,22.8
2022-10-05T20:16:10.973Z,22.4
2022-10-05T20:18:27.999Z,22.3
2022-10-05T20:20:45.856Z,22.4
2022-10-05T20:23:01.369Z,22.1
2022-10-05T20:25:18.129Z,22.6
2022-10-05T20:27:35.235Z,22.7
2022-10-05T20:29:51.910Z,22.6
2022-10-05T20:32:08.640Z,22.2
2022-10-05T20:34:24.611Z,22
2022-10-05T20:36:39.811Z,22.8
2022-10-05T20:38:55.870Z,23.1
2022-10-05T20:41:12.816Z,22.7
2022-10-05T20:43:29.775Z,22.4
2022-10-05T20:45:46.556Z,22.4
2022-10-05T20:48:03.436Z,22
2022-10-05T20:50:20.195Z,22.3
2022-10-05T20:52:36.932Z,22.2
2022-10-05T20:54:53.905Z,21.9
2022-10-05T20:57:10.612Z,22.1
2022-10-05T20:59:27.414Z,21.9
2022-10-05T21:01:44.217Z,22.8
2022-10-05T21:04:00.959Z,22.3
2022-10-05T21:06:02.744Z,22
2022-10-05T21:06:17.869Z,22.1
2022-10-05T21:08:34.561Z,22.3
2022-10-05T21:10:51.368Z,22.5
2022-10-05T21:13:08.530Z,22.1
2022-10-05T21:15:25.044Z,22.9
2022-10-05T21:17:41.952Z,22.8
2022-10-05T21:19:58.639Z,23
2022-10-05T21:22:15.673Z,22.4
2022-10-05T21:24:32.310Z,22.2
2022-10-05T21:26:49.052Z,22.6
2022-10-05T21:29:09.022Z,22.7
2022-10-05T21:31:22.842Z,22.6
2022-10-05T21:33:40.054Z,22.3
2022-10-05T21:35:56.264Z,22.1
2022-10-05T21:38:13.270Z,22.7
2022-10-05T21:40:30.271Z,22.3
2022-10-05T21:42:46.691Z,22.4
2022-10-05T21:45:03.473Z,22.5
2022-10-05T21:47:20.365Z,22
2022-10-05T21:49:37.144Z,22.6
2022-10-05T21:51:53.172Z,22.4
2022-10-05T21:54:08.516Z,22.6
2022-10-05T21:56:24.630Z,22.9
2022-10-05T21:58:41.753Z,22.4
2022-10-05T22:00:58.531Z,22.4
2022-10-05T22:03:15.482Z,22.5
2022-10-05T22:05:32.254Z,22.5
2022-10-05T22:07:49.065Z,22.4
2022-10-05T22:10:05.829Z,22.7
2022-10-05T22:12:23.112Z,22.6
2022-10-05T22:14:39.455Z,22.3
2022-10-05T22:16:56.316Z,22.4
2022-10-05T22:19:13.260Z,22.6
2022-10-05T22:21:30.094Z,22.3
2022-10-05T22:23:46.880Z,22.5
2022-10-05T22:26:03.731Z,22.5
2022-10-05T22:28:20.757Z,22.1
2022-10-05T22:30:37.347Z,22.2
2022-10-05T22:32:54.493Z,22.2
2022-10-05T22:35:11.822Z,22.1
2022-10-05T22:37:27.870Z,22.1
2022-10-05T22:39:44.702Z,22.6
2022-10-05T22:42:01.518Z,22.4
2022-10-05T22:44:18.875Z,22.6
2022-10-05T22:46:35.141Z,22.2
2022-10-05T22:48:51.940Z,22.2
2022-10-05T22:51:08.097Z,22.4
2022-10-05T22:53:23.990Z,22.6
2022-10-05T22:55:40.403Z,22.3
2022-10-05T22:57:56.316Z,22.9
2022-10-05T23:00:13.252Z,22.6
2022-10-05T23:02:45.550Z,22.4
2022-10-05T23:05:02.335Z,22.4
2022-10-05T23:07:19.230Z,22.3
2022-10-05T23:09:36.842Z,22.4
2022-10-05T23:11:52.902Z,22.3
2022-10-05T23:14:09.803Z,22.3
2022-10-05T23:16:25.955Z,22.4
2022-10-05T23:18:26.634Z,22.7
2022-10-05T23:18:41.215Z,22.8
2022-10-05T23:20:57.418Z,23.3
2022-10-05T23:23:14.466Z,22.6
2022-10-05T23:25:31.306Z,22.6
2022-10-05T23:27:48.182Z,22.4
2022-10-05T23:30:05.066Z,22.5
2022-10-05T23:32:21.959Z,22.4
2022-10-05T23:34:38.867Z,22.6
2022-10-05T23:36:40.621Z,22.1
2022-10-05T23:36:55.750Z,22.3
2022-10-05T23:39:12.589Z,22.4
2022-10-05T23:41:29.466Z,22.1
2022-10-05T23:43:46.386Z,22.7
2022-10-05T23:46:03.510Z,22.6
2022-10-05T23:48:20.216Z,22.7
2022-10-05T23:50:37.044Z,22.3
2022-10-05T23:52:53.851Z,22.4
2022-10-05T23:55:11.628Z,22.5
2022-10-05T23:57:27.601Z,22.1
2022-10-05T23:59:44.397Z,22.5
